Time;durP1;ratioP1;P1;durP2;ratioP2;P2;SDS_P1;SDS_P2;PMS_P1;PMS_P2;Temp;Humidity;BMP_temperature;BMP_pressure;BME280_temperature;BME280_humidity;BME280_pressure;Samples;Min_cycle;Max_cycle;Signal;HPM_P1;HPM_P2
2023/10/26 00:02:13;;;;;;;43.88;20.80;;;;;;;;;;5004787;28;20105;-64
2023/10/26 00:04:38;;;;;;;34.20;19.25;;;;;;;;;;5005391;28;20022;-64
2023/10/26 00:07:05;;;;;;;40.67;19.92;;;;;;;;;;5003915;28;20023;-65
2023/10/26 00:09:30;;;;;;;36.95;20.17;;;;;;;;;;5004681;28;20088;-64
2023/10/26 00:11:56;;;;;;;38.10;19.83;;;;;;;;;;5003741;28;20464;-64
2023/10/26 00:14:21;;;;;;;37.28;20.73;;;;;;;;;;5005277;28;20494;-64
2023/10/26 00:16:47;;;;;;;42.65;20.13;;;;;;;;;;5004408;28;20037;-64
2023/10/26 00:19:12;;;;;;;36.72;19.65;;;;;;;;;;5002620;28;20046;-64
2023/10/26 00:21:38;;;;;;;41.28;19.27;;;;;;;;;;5001744;28;20030;-64
2023/10/26 00:24:04;;;;;;;41.25;21.33;;;;;;;;;;5004654;28;20040;-64
2023/10/26 00:26:29;;;;;;;45.42;20.50;;;;;;;;;;5003420;28;20029;-64
2023/10/26 00:28:55;;;;;;;51.72;20.52;;;;;;;;;;5002920;28;20057;-64
2023/10/26 00:31:20;;;;;;;37.33;19.92;;;;;;;;;;5005174;28;20025;-64
2023/10/26 00:33:45;;;;;;;34.17;18.65;;;;;;;;;;5003844;28;20065;-64
2023/10/26 00:36:11;;;;;;;40.30;21.38;;;;;;;;;;5003629;28;20571;-64
2023/10/26 00:38:36;;;;;;;40.95;20.98;;;;;;;;;;5005152;28;20383;-64
2023/10/26 00:41:02;;;;;;;45.75;22.13;;;;;;;;;;5003391;28;20597;-64
2023/10/26 00:43:27;;;;;;;48.83;23.50;;;;;;;;;;5003971;28;20022;-64
2023/10/26 00:45:53;;;;;;;49.92;22.90;;;;;;;;;;5003464;28;20034;-64
2023/10/26 00:48:20;;;;;;;48.45;22.30;;;;;;;;;;5002480;28;20430;-63
2023/10/26 00:50:47;;;;;;;54.17;24.73;;;;;;;;;;5004071;28;20105;-64
2023/10/26 00:53:15;;;;;;;56.17;24.52;;;;;;;;;;5004581;28;20029;-64
2023/10/26 00:55:43;;;;;;;58.05;23.80;;;;;;;;;;5002984;28;20065;-64
2023/10/26 00:58:10;;;;;;;53.60;24.83;;;;;;;;;;5003688;28;20121;-64
2023/10/26 01:00:38;;;;;;;52.95;23.27;;;;;;;;;;5004709;28;20084;-64
2023/10/26 01:03:04;;;;;;;49.30;22.48;;;;;;;;;;5002987;28;20494;-63
2023/10/26 01:05:30;;;;;;;44.45;20.40;;;;;;;;;;5003315;28;20072;-63
2023/10/26 01:07:55;;;;;;;48.75;22.10;;;;;;;;;;5003698;28;20387;-62
2023/10/26 01:10:20;;;;;;;41.38;20.48;;;;;;;;;;5007091;28;20467;-62
2023/10/26 01:12:46;;;;;;;48.05;21.27;;;;;;;;;;5013864;28;20451;-62
2023/10/26 01:15:11;;;;;;;49.05;20.20;;;;;;;;;;5013760;28;20062;-63
2023/10/26 01:17:37;;;;;;;47.13;17.92;;;;;;;;;;5013438;28;20144;-63
2023/10/26 01:20:04;;;;;;;37.55;16.85;;;;;;;;;;5011994;28;20551;-63
2023/10/26 01:22:31;;;;;;;40.85;17.80;;;;;;;;;;5013690;28;20080;-63
2023/10/26 01:24:56;;;;;;;39.70;17.60;;;;;;;;;;5013546;28;20029;-63
2023/10/26 01:27:22;;;;;;;33.90;15.88;;;;;;;;;;5013676;28;20030;-63
2023/10/26 01:29:47;;;;;;;30.13;13.85;;;;;;;;;;5013404;28;20379;-63
2023/10/26 01:32:13;;;;;;;36.47;16.38;;;;;;;;;;5013651;28;20022;-63
2023/10/26 01:34:39;;;;;;;39.45;18.23;;;;;;;;;;5013543;28;20422;-64
2023/10/26 01:37:05;;;;;;;56.65;17.38;;;;;;;;;;5013477;28;20021;-63
2023/10/26 01:39:31;;;;;;;30.10;15.27;;;;;;;;;;5013413;28;20426;-63
2023/10/26 01:41:57;;;;;;;31.48;15.27;;;;;;;;;;5013337;28;20028;-62
2023/10/26 01:44:22;;;;;;;29.85;13.93;;;;;;;;;;5013324;28;20108;-63
2023/10/26 01:46:48;;;;;;;31.23;16.40;;;;;;;;;;5013183;28;20022;-63
2023/10/26 01:49:13;;;;;;;30.13;14.63;;;;;;;;;;5013270;28;20103;-63
2023/10/26 01:51:39;;;;;;;34.28;15.82;;;;;;;;;;5013220;28;20414;-63
2023/10/26 01:54:04;;;;;;;31.63;16.25;;;;;;;;;;5013052;28;20025;-64
2023/10/26 01:56:30;;;;;;;41.20;18.52;;;;;;;;;;5013213;28;20026;-63
2023/10/26 01:58:57;;;;;;;45.00;19.27;;;;;;;;;;5013005;28;20026;-63
2023/10/26 02:01:22;;;;;;;35.40;17.65;;;;;;;;;;5012766;28;20026;-63
2023/10/26 02:03:48;;;;;;;40.13;17.77;;;;;;;;;;5013033;28;20430;-63
2023/10/26 02:06:14;;;;;;;42.40;19.23;;;;;;;;;;5013110;28;20034;-63
2023/10/26 02:08:40;;;;;;;40.92;18.33;;;;;;;;;;5012928;28;20088;-63
2023/10/26 02:11:06;;;;;;;45.55;18.52;;;;;;;;;;5013079;28;20026;-64
2023/10/26 02:13:31;;;;;;;40.25;16.80;;;;;;;;;;5012842;28;20499;-63
2023/10/26 02:15:57;;;;;;;36.03;15.00;;;;;;;;;;5012809;28;20091;-63
2023/10/26 02:18:23;;;;;;;28.77;11.40;;;;;;;;;;5012632;28;20045;-63
2023/10/26 02:20:48;;;;;;;46.95;18.08;;;;;;;;;;5016875;28;20026;-63
2023/10/26 02:23:14;;;;;;;43.80;16.55;;;;;;;;;;5016957;28;20085;-64
2023/10/26 02:25:39;;;;;;;42.03;16.70;;;;;;;;;;5016865;28;20046;-64
2023/10/26 02:28:04;;;;;;;44.33;16.73;;;;;;;;;;5016757;28;20109;-64
2023/10/26 02:30:30;;;;;;;42.30;17.35;;;;;;;;;;5015333;28;20026;-64
2023/10/26 02:32:55;;;;;;;48.65;16.92;;;;;;;;;;5016679;28;20084;-64
2023/10/26 02:35:21;;;;;;;48.45;16.52;;;;;;;;;;5016758;28;20026;-64
2023/10/26 02:37:47;;;;;;;54.97;18.08;;;;;;;;;;5016727;28;20030;-64
2023/10/26 02:40:12;;;;;;;48.20;17.58;;;;;;;;;;5016640;28;20104;-64
2023/10/26 02:42:38;;;;;;;50.10;16.73;;;;;;;;;;5016652;28;20080;-64
2023/10/26 02:45:08;;;;;;;46.22;16.92;;;;;;;;;;5016474;28;20034;-64
2023/10/26 02:47:34;;;;;;;46.13;17.20;;;;;;;;;;5016423;28;20065;-64
2023/10/26 02:49:59;;;;;;;41.65;16.65;;;;;;;;;;5016404;28;20061;-64
2023/10/26 02:52:25;;;;;;;46.90;15.88;;;;;;;;;;5016358;28;20045;-63
2023/10/26 02:54:50;;;;;;;50.28;17.77;;;;;;;;;;5016328;28;20022;-64
2023/10/26 02:57:16;;;;;;;52.05;17.98;;;;;;;;;;5016425;28;20026;-64
2023/10/26 02:59:41;;;;;;;52.85;17.05;;;;;;;;;;5015849;28;20044;-64
2023/10/26 03:02:07;;;;;;;46.28;16.95;;;;;;;;;;5016277;28;20105;-64
2023/10/26 03:04:34;;;;;;;75.00;29.73;;;;;;;;;;5016196;28;20033;-64
2023/10/26 03:07:00;;;;;;;46.08;17.38;;;;;;;;;;5016195;28;20064;-64
2023/10/26 03:09:26;;;;;;;45.30;16.52;;;;;;;;;;5016023;28;20058;-63
2023/10/26 03:11:51;;;;;;;49.03;16.85;;;;;;;;;;5016170;28;20026;-64
2023/10/26 03:14:18;;;;;;;47.78;17.27;;;;;;;;;;5015720;28;20485;-64
2023/10/26 03:16:43;;;;;;;39.92;15.27;;;;;;;;;;5016050;28;20025;-63
2023/10/26 03:19:09;;;;;;;43.67;15.43;;;;;;;;;;5015563;28;20458;-63
2023/10/26 03:21:35;;;;;;;40.45;16.27;;;;;;;;;;5015724;28;20065;-64
2023/10/26 03:24:00;;;;;;;38.03;15.80;;;;;;;;;;5015785;28;20030;-63
2023/10/26 03:26:26;;;;;;;40.25;17.88;;;;;;;;;;5015852;28;20428;-63
2023/10/26 03:28:52;;;;;;;42.65;16.55;;;;;;;;;;5015444;28;20092;-63
2023/10/26 03:31:18;;;;;;;44.13;15.48;;;;;;;;;;5014661;28;20033;-63
2023/10/26 03:33:43;;;;;;;31.05;14.07;;;;;;;;;;5015715;28;20037;-63
2023/10/26 03:36:13;;;;;;;34.60;14.50;;;;;;;;;;5015796;28;20026;-63
2023/10/26 03:38:38;;;;;;;36.97;14.40;;;;;;;;;;5015670;28;20072;-63
2023/10/26 03:41:04;;;;;;;32.40;14.45;;;;;;;;;;5015618;28;20536;-63
2023/10/26 03:43:29;;;;;;;29.00;13.13;;;;;;;;;;5015169;28;20471;-63
2023/10/26 03:45:55;;;;;;;31.83;13.40;;;;;;;;;;5015455;28;20068;-63
2023/10/26 03:48:20;;;;;;;29.27;12.43;;;;;;;;;;5015415;28;20380;-63
2023/10/26 03:50:46;;;;;;;26.63;12.70;;;;;;;;;;5015643;28;20123;-63
2023/10/26 03:53:11;;;;;;;26.77;12.27;;;;;;;;;;5015323;28;20050;-63
2023/10/26 03:55:37;;;;;;;25.42;12.00;;;;;;;;;;5015526;28;20040;-63
2023/10/26 03:58:02;;;;;;;24.38;10.43;;;;;;;;;;5015078;28;20026;-64
2023/10/26 04:00:27;;;;;;;21.67;10.15;;;;;;;;;;5015200;28;20371;-63
2023/10/26 04:02:53;;;;;;;17.98;9.40;;;;;;;;;;5015042;28;20574;-63
2023/10/26 04:05:18;;;;;;;17.83;8.82;;;;;;;;;;5015052;28;20092;-64
2023/10/26 04:07:44;;;;;;;16.45;8.68;;;;;;;;;;5014956;28;20046;-63
2023/10/26 04:10:09;;;;;;;16.50;8.82;;;;;;;;;;5014930;28;20111;-63
2023/10/26 04:12:35;;;;;;;20.27;8.52;;;;;;;;;;5014718;28;20466;-63
2023/10/26 04:15:01;;;;;;;15.55;7.82;;;;;;;;;;5014829;28;20030;-63
2023/10/26 04:17:27;;;;;;;17.75;8.60;;;;;;;;;;5013410;28;20042;-63
2023/10/26 04:19:52;;;;;;;18.88;8.88;;;;;;;;;;5014481;28;20128;-63
2023/10/26 04:22:18;;;;;;;19.23;10.10;;;;;;;;;;5014812;28;20482;-63
2023/10/26 04:24:43;;;;;;;23.70;10.80;;;;;;;;;;5014810;28;20236;-63
2023/10/26 04:27:08;;;;;;;20.83;10.38;;;;;;;;;;5014336;28;20061;-64
2023/10/26 04:29:34;;;;;;;19.17;10.85;;;;;;;;;;5014499;28;20033;-64
2023/10/26 04:31:59;;;;;;;20.13;10.73;;;;;;;;;;5013254;28;20120;-63
2023/10/26 04:34:25;;;;;;;27.15;11.20;;;;;;;;;;5014564;28;20026;-63
2023/10/26 04:36:51;;;;;;;31.58;11.40;;;;;;;;;;5014606;28;20025;-63
2023/10/26 04:39:16;;;;;;;26.10;10.85;;;;;;;;;;5014312;28;20375;-63
2023/10/26 04:41:43;;;;;;;28.17;12.85;;;;;;;;;;5014053;28;20486;-64
2023/10/26 04:44:08;;;;;;;25.30;11.23;;;;;;;;;;5012960;28;20037;-64
2023/10/26 04:46:34;;;;;;;20.20;10.93;;;;;;;;;;5014412;28;20030;-63
2023/10/26 04:49:00;;;;;;;27.88;11.73;;;;;;;;;;5014386;28;20117;-63
2023/10/26 04:51:25;;;;;;;30.50;11.73;;;;;;;;;;5014180;28;20026;-64
2023/10/26 04:53:51;;;;;;;32.80;12.38;;;;;;;;;;5014142;28;20109;-64
2023/10/26 04:56:16;;;;;;;31.25;13.52;;;;;;;;;;5014008;28;20061;-64
2023/10/26 04:58:43;;;;;;;27.92;12.80;;;;;;;;;;5014294;28;20072;-63
2023/10/26 05:01:09;;;;;;;28.33;12.15;;;;;;;;;;5014116;28;20100;-63
2023/10/26 05:03:34;;;;;;;28.83;13.40;;;;;;;;;;5014091;28;20483;-63
2023/10/26 05:06:00;;;;;;;39.38;14.13;;;;;;;;;;5013963;28;20069;-62
2023/10/26 05:08:25;;;;;;;31.35;13.98;;;;;;;;;;5013615;28;20074;-63
2023/10/26 05:10:51;;;;;;;37.63;14.50;;;;;;;;;;5013911;28;20034;-62
2023/10/26 05:13:16;;;;;;;33.17;13.80;;;;;;;;;;5013756;28;20029;-64
2023/10/26 05:15:45;;;;;;;35.40;13.95;;;;;;;;;;5013872;28;20017;-63
2023/10/26 05:18:10;;;;;;;39.67;14.77;;;;;;;;;;5013636;28;20046;-63
2023/10/26 05:20:37;;;;;;;34.53;13.73;;;;;;;;;;5013325;28;20160;-64
2023/10/26 05:23:03;;;;;;;54.03;14.70;;;;;;;;;;5013504;28;20080;-63
2023/10/26 05:25:28;;;;;;;30.13;14.23;;;;;;;;;;5013552;28;20502;-64
2023/10/26 05:27:54;;;;;;;35.10;14.73;;;;;;;;;;5011903;28;20172;-63
2023/10/26 05:30:19;;;;;;;35.83;14.77;;;;;;;;;;4993876;28;20034;-64
2023/10/26 05:32:45;;;;;;;35.78;15.27;;;;;;;;;;4993745;28;20475;-63
2023/10/26 05:35:10;;;;;;;34.83;15.48;;;;;;;;;;4993849;28;20026;-63
2023/10/26 05:37:36;;;;;;;38.97;15.55;;;;;;;;;;4993480;28;20030;-63
2023/10/26 05:40:04;;;;;;;38.05;16.65;;;;;;;;;;4993361;28;20338;-64
2023/10/26 05:42:30;;;;;;;38.42;15.82;;;;;;;;;;4993676;28;20029;-63
2023/10/26 05:44:56;;;;;;;38.95;16.63;;;;;;;;;;4993656;28;20031;-64
2023/10/26 05:47:22;;;;;;;35.33;14.68;;;;;;;;;;4993666;28;20156;-64
2023/10/26 05:49:47;;;;;;;34.00;15.98;;;;;;;;;;4993583;28;20053;-63
2023/10/26 05:52:13;;;;;;;32.92;14.18;;;;;;;;;;4993409;28;20034;-64
2023/10/26 05:54:38;;;;;;;38.80;16.25;;;;;;;;;;4992783;28;20019;-63
2023/10/26 05:57:04;;;;;;;38.00;16.08;;;;;;;;;;4993435;28;20026;-63
2023/10/26 05:59:29;;;;;;;35.80;15.60;;;;;;;;;;4993295;28;20514;-63
2023/10/26 06:01:55;;;;;;;34.75;15.90;;;;;;;;;;4993302;28;20479;-63
2023/10/26 06:04:20;;;;;;;40.47;16.42;;;;;;;;;;5023817;23;20138;-63
2023/10/26 06:06:45;;;;;;;35.20;14.98;;;;;;;;;;4973634;28;20427;-63
2023/10/26 06:09:11;;;;;;;38.90;16.73;;;;;;;;;;4973894;28;20035;-63
2023/10/26 06:11:37;;;;;;;34.67;15.52;;;;;;;;;;4973990;28;20031;-64
2023/10/26 06:14:03;;;;;;;40.05;17.02;;;;;;;;;;4972468;28;20038;-64
2023/10/26 06:16:28;;;;;;;29.50;14.73;;;;;;;;;;4972785;28;20035;-63
2023/10/26 06:18:54;;;;;;;33.78;14.77;;;;;;;;;;4973740;28;20042;-62
2023/10/26 06:21:19;;;;;;;33.70;14.50;;;;;;;;;;4973554;28;20023;-62
2023/10/26 06:23:45;;;;;;;29.27;14.35;;;;;;;;;;4973823;28;20468;-62
2023/10/26 06:26:11;;;;;;;39.90;16.40;;;;;;;;;;4973661;28;20472;-62
2023/10/26 06:28:36;;;;;;;35.50;14.70;;;;;;;;;;4973675;28;20058;-62
2023/10/26 06:31:14;;;;;;;37.10;15.10;;;;;;;;;;4973786;28;20358;-62
2023/10/26 06:33:40;;;;;;;33.72;15.65;;;;;;;;;;4973590;28;20503;-62
2023/10/26 06:36:06;;;;;;;38.05;16.17;;;;;;;;;;4973659;28;20027;-62
2023/10/26 06:38:31;;;;;;;32.38;14.95;;;;;;;;;;4973409;28;20058;-62
2023/10/26 06:40:57;;;;;;;28.35;14.27;;;;;;;;;;4967378;28;20065;-62
2023/10/26 06:43:24;;;;;;;28.80;14.20;;;;;;;;;;4967440;28;20019;-62
2023/10/26 06:45:50;;;;;;;32.92;13.18;;;;;;;;;;4966280;28;20038;-62
2023/10/26 06:48:18;;;;;;;24.42;13.27;;;;;;;;;;4968158;28;20030;-63
2023/10/26 06:50:44;;;;;;;23.15;11.48;;;;;;;;;;4967894;28;20032;-62
2023/10/26 06:53:11;;;;;;;22.67;11.65;;;;;;;;;;4969402;28;20062;-62
2023/10/26 06:55:37;;;;;;;19.92;11.20;;;;;;;;;;4970024;28;20030;-63
2023/10/26 06:58:04;;;;;;;21.65;11.40;;;;;;;;;;4975281;28;20034;-62
2023/10/26 07:00:29;;;;;;;23.85;11.88;;;;;;;;;;4992492;28;20343;-63
2023/10/26 07:02:55;;;;;;;19.48;11.82;;;;;;;;;;4984780;28;20449;-62
2023/10/26 07:05:20;;;;;;;20.73;12.43;;;;;;;;;;4972563;28;20043;-63
2023/10/26 07:07:46;;;;;;;21.52;11.55;;;;;;;;;;4976947;28;20031;-62
2023/10/26 07:10:15;;;;;;;22.02;11.85;;;;;;;;;;4985650;28;20403;-63
2023/10/26 07:12:42;;;;;;;27.67;13.23;;;;;;;;;;4976690;28;20476;-63
2023/10/26 07:15:08;;;;;;;23.80;13.43;;;;;;;;;;4976642;28;20043;-63
2023/10/26 07:17:34;;;;;;;22.48;13.05;;;;;;;;;;4976551;28;20026;-63
2023/10/26 07:20:02;;;;;;;20.80;11.25;;;;;;;;;;4976319;28;20034;-63
2023/10/26 07:22:27;;;;;;;21.45;11.82;;;;;;;;;;4976579;28;20026;-63
2023/10/26 07:24:53;;;;;;;21.13;12.20;;;;;;;;;;4976558;28;20636;-62
2023/10/26 07:27:19;;;;;;;22.40;11.65;;;;;;;;;;4976339;28;20118;-62
2023/10/26 07:29:46;;;;;;;22.10;12.30;;;;;;;;;;4976360;28;20051;-62
2023/10/26 07:32:12;;;;;;;23.75;12.23;;;;;;;;;;4976891;28;20077;-63
2023/10/26 07:34:37;;;;;;;23.23;12.23;;;;;;;;;;4970622;28;20480;-63
2023/10/26 07:37:03;;;;;;;20.52;12.05;;;;;;;;;;4972767;28;20097;-63
2023/10/26 07:39:31;;;;;;;20.10;12.48;;;;;;;;;;4993879;28;20026;-63
2023/10/26 07:41:57;;;;;;;20.98;12.18;;;;;;;;;;4995709;28;20088;-63
2023/10/26 07:44:22;;;;;;;22.60;13.35;;;;;;;;;;4995494;28;20077;-63
2023/10/26 07:46:48;;;;;;;21.17;12.35;;;;;;;;;;4985722;28;20074;-63
2023/10/26 07:49:13;;;;;;;23.20;12.95;;;;;;;;;;4975734;28;20030;-63
2023/10/26 07:51:38;;;;;;;20.73;11.25;;;;;;;;;;4976059;28;20495;-63
2023/10/26 07:54:04;;;;;;;19.95;11.07;;;;;;;;;;4975889;28;20018;-63
2023/10/26 07:56:30;;;;;;;23.88;12.13;;;;;;;;;;4959069;28;20122;-63
2023/10/26 07:58:55;;;;;;;18.08;11.63;;;;;;;;;;4969664;28;20362;-63
2023/10/26 08:01:21;;;;;;;18.75;10.55;;;;;;;;;;4975674;28;20034;-63
2023/10/26 08:03:48;;;;;;;18.38;11.45;;;;;;;;;;4974163;28;20137;-63
2023/10/26 08:06:14;;;;;;;21.63;11.40;;;;;;;;;;4975830;28;20035;-63
2023/10/26 08:08:39;;;;;;;22.25;11.13;;;;;;;;;;4975711;28;20030;-64
2023/10/26 08:11:14;;;;;;;18.38;10.27;;;;;;;;;;4975608;28;20023;-63
2023/10/26 08:13:40;;;;;;;19.05;10.38;;;;;;;;;;4975820;28;20048;-64
2023/10/26 08:16:06;;;;;;;17.73;10.68;;;;;;;;;;4975476;28;20027;-64
2023/10/26 08:18:33;;;;;;;18.35;9.90;;;;;;;;;;4975053;28;20022;-64
2023/10/26 08:20:59;;;;;;;22.35;11.30;;;;;;;;;;4975084;28;20481;-64
2023/10/26 08:23:29;;;;;;;17.55;10.98;;;;;;;;;;4975313;28;20027;-64
2023/10/26 08:25:55;;;;;;;17.00;10.80;;;;;;;;;;4975257;28;20380;-64
2023/10/26 08:28:20;;;;;;;16.65;10.00;;;;;;;;;;4975254;28;20030;-64
2023/10/26 08:30:45;;;;;;;19.65;10.23;;;;;;;;;;4975375;28;20432;-64
2023/10/26 08:33:11;;;;;;;16.27;9.13;;;;;;;;;;4983989;28;20030;-64
2023/10/26 08:35:39;;;;;;;16.90;9.57;;;;;;;;;;4994706;28;20022;-63
2023/10/26 08:38:04;;;;;;;15.75;9.15;;;;;;;;;;4994610;28;20038;-64
2023/10/26 08:40:30;;;;;;;18.05;9.55;;;;;;;;;;4976251;28;20042;-64
2023/10/26 08:42:56;;;;;;;19.40;9.80;;;;;;;;;;4964376;28;20030;-63
2023/10/26 08:45:27;;;;;;;23.35;9.48;;;;;;;;;;4965816;28;20033;-64
2023/10/26 08:47:56;;;;;;;26.85;9.43;;;;;;;;;;4963706;28;20108;-64
2023/10/26 08:50:23;;;;;;;16.30;8.10;;;;;;;;;;4965921;28;20027;-63
2023/10/26 08:52:49;;;;;;;13.35;7.80;;;;;;;;;;4964252;28;20598;-64
2023/10/26 08:55:15;;;;;;;12.20;8.30;;;;;;;;;;4966837;28;20031;-65
2023/10/26 08:57:48;;;;;;;14.02;6.75;;;;;;;;;;4974998;28;20039;-63
2023/10/26 09:00:15;;;;;;;11.55;7.25;;;;;;;;;;4974546;28;20109;-65
2023/10/26 09:02:41;;;;;;;13.65;7.25;;;;;;;;;;4967444;28;20031;-64
2023/10/26 09:05:08;;;;;;;11.40;6.38;;;;;;;;;;4965185;28;20051;-64
2023/10/26 09:07:34;;;;;;;10.90;6.80;;;;;;;;;;4963543;28;20508;-64
2023/10/26 09:10:00;;;;;;;11.73;7.93;;;;;;;;;;4965828;28;20046;-64
2023/10/26 09:12:25;;;;;;;16.15;7.50;;;;;;;;;;4964711;28;20369;-64
2023/10/26 09:15:04;;;;;;;12.70;7.57;;;;;;;;;;4964691;28;20023;-64
2023/10/26 09:17:30;;;;;;;18.05;7.47;;;;;;;;;;4957688;28;20066;-64
2023/10/26 09:19:57;;;;;;;14.65;7.43;;;;;;;;;;4969150;28;20398;-63
2023/10/26 09:22:38;;;;;;;13.15;6.78;;;;;;;;;;4967741;28;20461;-63
2023/10/26 09:25:12;;;;;;;12.23;6.50;;;;;;;;;;4969763;28;20035;-64
2023/10/26 09:27:44;;;;;;;11.07;6.80;;;;;;;;;;4968376;28;20102;-64
2023/10/26 09:30:42;;;;;;;10.25;6.95;;;;;;;;;;4969163;28;20074;-65
2023/10/26 09:33:22;;;;;;;13.13;7.95;;;;;;;;;;4953819;28;20198;-63
2023/10/26 09:35:47;;;;;;;11.15;6.95;;;;;;;;;;4963298;28;20039;-63
2023/10/26 09:38:13;;;;;;;12.60;7.18;;;;;;;;;;4971931;28;20617;-64
2023/10/26 09:40:38;;;;;;;11.10;6.65;;;;;;;;;;4972055;28;20031;-64
2023/10/26 09:43:04;;;;;;;11.68;7.38;;;;;;;;;;4971615;28;20050;-64
2023/10/26 09:45:29;;;;;;;11.10;6.82;;;;;;;;;;4971810;28;20034;-64
2023/10/26 09:47:55;;;;;;;10.48;6.63;;;;;;;;;;4952947;28;20031;-63
2023/10/26 09:50:21;;;;;;;12.10;6.78;;;;;;;;;;4943042;28;20563;-63
2023/10/26 09:52:47;;;;;;;11.55;6.65;;;;;;;;;;4941894;29;20028;-63
2023/10/26 09:55:13;;;;;;;14.60;6.95;;;;;;;;;;4947518;29;20476;-63
2023/10/26 09:58:09;;;;;;;11.68;7.10;;;;;;;;;;4941631;29;20046;-64
2023/10/26 10:00:35;;;;;;;9.75;6.28;;;;;;;;;;4941676;29;20039;-63
2023/10/26 10:03:12;;;;;;;9.90;5.20;;;;;;;;;;4943024;29;20034;-64
2023/10/26 10:05:39;;;;;;;8.52;5.35;;;;;;;;;;4945629;29;20115;-64
2023/10/26 10:08:05;;;;;;;10.52;6.00;;;;;;;;;;4943145;29;20039;-63
2023/10/26 10:10:32;;;;;;;11.32;6.10;;;;;;;;;;4954522;28;20023;-63
2023/10/26 10:12:57;;;;;;;10.75;6.90;;;;;;;;;;4954285;28;20082;-63
2023/10/26 10:15:38;;;;;;;11.05;6.35;;;;;;;;;;4954286;29;20447;-63
2023/10/26 10:18:05;;;;;;;9.65;6.30;;;;;;;;;;4953187;29;20137;-63
2023/10/26 10:20:32;;;;;;;9.23;5.93;;;;;;;;;;4959548;28;20034;-64
2023/10/26 10:22:59;;;;;;;11.55;6.85;;;;;;;;;;4972245;28;20368;-63
2023/10/26 10:25:49;;;;;;;9.70;6.82;;;;;;;;;;4973701;28;20097;-64
2023/10/26 10:28:15;;;;;;;9.70;5.53;;;;;;;;;;4973141;28;21542;-63
2023/10/26 10:31:00;;;;;;;9.48;5.90;;;;;;;;;;4973542;28;20039;-64
2023/10/26 10:33:29;;;;;;;9.18;5.40;;;;;;;;;;4973696;28;20404;-64
2023/10/26 10:36:03;;;;;;;11.35;5.97;;;;;;;;;;4973579;28;20050;-64
2023/10/26 10:38:29;;;;;;;10.80;5.85;;;;;;;;;;4973607;28;20436;-64
2023/10/26 10:40:55;;;;;;;8.45;5.25;;;;;;;;;;4974665;28;20453;-64
2023/10/26 10:43:40;;;;;;;9.70;5.55;;;;;;;;;;4976941;28;20062;-63
2023/10/26 10:46:15;;;;;;;10.27;5.28;;;;;;;;;;4977242;28;20023;-64
2023/10/26 10:49:01;;;;;;;13.15;5.93;;;;;;;;;;4976933;28;20194;-64
2023/10/26 10:51:40;;;;;;;9.05;5.13;;;;;;;;;;4973168;28;20042;-64
2023/10/26 10:54:07;;;;;;;9.20;5.18;;;;;;;;;;4976865;28;20022;-63
2023/10/26 10:56:37;;;;;;;7.45;5.07;;;;;;;;;;4959309;28;20034;-63
2023/10/26 10:59:17;;;;;;;8.63;4.63;;;;;;;;;;4966967;28;20019;-63
2023/10/26 11:01:43;;;;;;;7.90;5.43;;;;;;;;;;4957769;28;20170;-65
2023/10/26 11:04:12;;;;;;;6.95;4.60;;;;;;;;;;4962887;28;20105;-63
2023/10/26 11:06:46;;;;;;;9.05;5.03;;;;;;;;;;4976907;28;20423;-64
2023/10/26 11:09:37;;;;;;;9.27;5.15;;;;;;;;;;4976709;28;20031;-64
2023/10/26 11:12:11;;;;;;;11.05;5.45;;;;;;;;;;4976536;28;20554;-64
2023/10/26 11:14:48;;;;;;;8.95;4.72;;;;;;;;;;4976746;28;20037;-64
2023/10/26 11:17:14;;;;;;;8.93;5.22;;;;;;;;;;4976818;28;20060;-64
2023/10/26 11:19:39;;;;;;;12.63;5.43;;;;;;;;;;4976361;28;20038;-64
2023/10/26 11:22:06;;;;;;;9.50;5.13;;;;;;;;;;4976512;28;20106;-64
2023/10/26 11:24:31;;;;;;;9.05;5.80;;;;;;;;;;4976434;28;20106;-64
2023/10/26 11:27:17;;;;;;;10.30;5.45;;;;;;;;;;4976158;28;20128;-64
2023/10/26 11:29:44;;;;;;;7.22;5.22;;;;;;;;;;4976519;28;20136;-64
2023/10/26 11:32:25;;;;;;;9.88;5.32;;;;;;;;;;4976506;28;20030;-63
2023/10/26 11:35:09;;;;;;;10.70;5.50;;;;;;;;;;4976368;28;20377;-64
2023/10/26 11:37:41;;;;;;;7.70;5.40;;;;;;;;;;4976261;28;20580;-64
2023/10/26 11:40:09;;;;;;;8.95;4.97;;;;;;;;;;4976120;28;20403;-63
2023/10/26 11:42:53;;;;;;;7.97;5.07;;;;;;;;;;4976148;28;20023;-62
2023/10/26 11:45:21;;;;;;;6.97;4.07;;;;;;;;;;4976318;28;20031;-63
2023/10/26 11:47:54;;;;;;;9.68;5.07;;;;;;;;;;4976204;28;20468;-62
2023/10/26 11:50:25;;;;;;;9.93;5.28;;;;;;;;;;4976189;28;20393;-62
2023/10/26 11:52:56;;;;;;;8.65;5.50;;;;;;;;;;4975165;28;20078;-63
2023/10/26 11:55:22;;;;;;;11.95;5.70;;;;;;;;;;4967809;28;20034;-62
2023/10/26 11:57:48;;;;;;;14.05;5.95;;;;;;;;;;4956724;28;20496;-63
2023/10/26 12:00:16;;;;;;;9.48;6.18;;;;;;;;;;4975087;28;20034;-63
2023/10/26 12:02:42;;;;;;;14.88;6.35;;;;;;;;;;4975660;28;20038;-63
2023/10/26 12:05:11;;;;;;;11.13;5.32;;;;;;;;;;4974107;28;20507;-63
2023/10/26 12:07:36;;;;;;;12.40;5.40;;;;;;;;;;4976110;28;20495;-63
2023/10/26 12:10:03;;;;;;;10.07;5.80;;;;;;;;;;4975509;28;20031;-63
2023/10/26 12:12:28;;;;;;;9.63;5.47;;;;;;;;;;4975782;28;20082;-63
2023/10/26 12:14:54;;;;;;;17.95;9.50;;;;;;;;;;4975572;28;20062;-63
2023/10/26 12:17:19;;;;;;;12.07;6.30;;;;;;;;;;4975553;28;20027;-63
2023/10/26 12:19:44;;;;;;;10.30;5.13;;;;;;;;;;4974350;28;20031;-63
2023/10/26 12:22:10;;;;;;;10.55;6.10;;;;;;;;;;4975522;28;20031;-64
2023/10/26 12:24:36;;;;;;;9.35;4.63;;;;;;;;;;4975161;28;20026;-62
2023/10/26 12:27:01;;;;;;;12.25;4.80;;;;;;;;;;4975231;28;20027;-62
2023/10/26 12:29:27;;;;;;;9.73;5.68;;;;;;;;;;4974788;28;20034;-62
2023/10/26 12:31:53;;;;;;;44.97;24.48;;;;;;;;;;4975344;28;20023;-64
2023/10/26 12:34:22;;;;;;;8.48;5.32;;;;;;;;;;4975372;28;20019;-64
2023/10/26 12:36:47;;;;;;;13.32;5.95;;;;;;;;;;4975346;28;20062;-64
2023/10/26 12:39:13;;;;;;;9.52;5.60;;;;;;;;;;4975087;28;20503;-64
2023/10/26 12:41:38;;;;;;;9.90;5.45;;;;;;;;;;4975088;28;20507;-64
2023/10/26 12:44:04;;;;;;;7.18;4.75;;;;;;;;;;4975099;28;20153;-64
2023/10/26 12:46:30;;;;;;;7.25;4.55;;;;;;;;;;4975025;28;20227;-63
2023/10/26 12:48:56;;;;;;;11.18;5.97;;;;;;;;;;4973653;28;20491;-64
2023/10/26 12:51:21;;;;;;;19.00;6.28;;;;;;;;;;4975075;28;20479;-64
2023/10/26 12:53:47;;;;;;;9.30;5.47;;;;;;;;;;4974616;28;20026;-62
2023/10/26 12:56:12;;;;;;;7.13;4.88;;;;;;;;;;4974743;28;20031;-62
2023/10/26 12:58:37;;;;;;;9.13;4.53;;;;;;;;;;4974644;28;20022;-63
2023/10/26 13:01:03;;;;;;;6.88;4.70;;;;;;;;;;4974684;28;20349;-63
2023/10/26 13:03:28;;;;;;;9.32;5.13;;;;;;;;;;4974237;28;20463;-62
2023/10/26 13:05:54;;;;;;;9.10;4.82;;;;;;;;;;4974727;28;20063;-62
2023/10/26 13:08:20;;;;;;;18.95;5.65;;;;;;;;;;4974300;28;20428;-63
2023/10/26 13:10:45;;;;;;;10.43;5.32;;;;;;;;;;4974654;28;20023;-63
2023/10/26 13:13:12;;;;;;;10.98;4.78;;;;;;;;;;4974435;28;20027;-63
2023/10/26 13:15:41;;;;;;;11.82;4.68;;;;;;;;;;4974154;28;20039;-63
2023/10/26 13:18:06;;;;;;;7.13;4.63;;;;;;;;;;4974296;28;20027;-63
2023/10/26 13:20:32;;;;;;;6.60;4.55;;;;;;;;;;4974194;28;20113;-64
2023/10/26 13:22:58;;;;;;;8.60;4.88;;;;;;;;;;4974062;28;20035;-64
2023/10/26 13:25:25;;;;;;;7.85;4.82;;;;;;;;;;4974303;28;20031;-64
2023/10/26 13:27:51;;;;;;;8.30;4.70;;;;;;;;;;4974163;28;20035;-65
2023/10/26 13:30:17;;;;;;;11.63;5.60;;;;;;;;;;4974137;28;20356;-64
2023/10/26 13:32:42;;;;;;;8.73;5.15;;;;;;;;;;4973876;28;20136;-63
2023/10/26 13:35:09;;;;;;;13.57;5.32;;;;;;;;;;4974014;28;20034;-63
2023/10/26 13:37:34;;;;;;;13.77;6.07;;;;;;;;;;4973840;28;20048;-64
2023/10/26 13:40:00;;;;;;;8.18;4.95;;;;;;;;;;4973886;28;20035;-64
2023/10/26 13:42:28;;;;;;;8.40;4.70;;;;;;;;;;4971707;28;20058;-64
2023/10/26 13:44:54;;;;;;;8.05;3.90;;;;;;;;;;4964546;28;20031;-64
2023/10/26 13:47:19;;;;;;;6.45;3.90;;;;;;;;;;4965505;28;20034;-64
2023/10/26 13:49:45;;;;;;;9.10;4.22;;;;;;;;;;4963862;28;20061;-64
2023/10/26 13:52:10;;;;;;;9.30;4.55;;;;;;;;;;4964264;28;20110;-64
2023/10/26 13:54:36;;;;;;;7.32;4.82;;;;;;;;;;4963012;28;20032;-64
2023/10/26 13:57:01;;;;;;;13.07;4.82;;;;;;;;;;4964147;28;20105;-64
2023/10/26 13:59:29;;;;;;;22.67;11.50;;;;;;;;;;4966291;28;20349;-64
2023/10/26 14:01:55;;;;;;;11.02;5.78;;;;;;;;;;4962453;28;20015;-64
2023/10/26 14:04:21;;;;;;;5.93;4.32;;;;;;;;;;4968007;28;20156;-64
2023/10/26 14:06:47;;;;;;;11.40;4.43;;;;;;;;;;4973494;28;20035;-64
2023/10/26 14:09:13;;;;;;;7.72;4.70;;;;;;;;;;4973549;28;20112;-65
2023/10/26 14:11:38;;;;;;;11.68;4.03;;;;;;;;;;4973804;28;20472;-65
2023/10/26 14:14:04;;;;;;;9.55;4.47;;;;;;;;;;4973890;28;20023;-65
2023/10/26 14:16:29;;;;;;;8.38;4.40;;;;;;;;;;4976321;28;20029;-64
2023/10/26 14:18:55;;;;;;;7.47;4.82;;;;;;;;;;4969125;28;20027;-65
2023/10/26 14:21:21;;;;;;;12.00;4.50;;;;;;;;;;4971951;28;20030;-65
2023/10/26 14:23:47;;;;;;;13.75;6.32;;;;;;;;;;4962109;28;20059;-65
2023/10/26 14:26:15;;;;;;;8.07;5.25;;;;;;;;;;4960629;28;20062;-64